Tuesday, January 23, 2018, 6:52 PM EST
Back to Local

KRME, Griffiss Airfield

Location: Rome, NY, United States Lat: 43.233
Local Time: 6:52 PM EST (23:52 GMT) Lon: -75.4
Time Zone: US/Eastern Elev: 505 ft

Show me the last for .
Show Decoded

2018-01-23 18:03 METAR KRME 232303Z 28005KT 10SM SCT028 SCT036 BKN090 03/01 A2961 RMK AO2
                 T00330011 =
2018-01-23 17:53 METAR KRME 232253Z 28008KT 10SM BKN027 BKN080 03/01 A2961 RMK AO2 SLP028
                 T00330011 =
2018-01-23 17:25 METAR KRME 232225Z 27006KT 10SM BKN027 OVC070 04/02 A2960 RMK AO2 T00390017 =
2018-01-23 16:53 METAR KRME 232153Z 29010KT 10SM FEW035 OVC060 04/02 A2959 RMK AO2 RAE18B38E53
                 SLP021 P0000 T00390017 =
2018-01-23 15:53 METAR KRME 232053Z 28019G35KT 10SM -RA FEW018 BKN036 OVC044 04/02 A2956 RMK AO2
                 PK WND 28041/2030 WSHFT 2027 RAB23 PRESRR SLP012 P0002 60002 T00440022 53011 =
2018-01-23 15:35 METAR KRME 232035Z 27022G41KT 8SM RA SQ FEW030 BKN045 OVC070 06/03 A2953 RMK AO2
                 PK WND 28041/2030 RAB23 PRESRR P0001 T00560028 =
2018-01-23 14:53 METAR KRME 231953Z 12007KT 10SM BKN070 OVC090 07/06 A2949 RMK AO2 SLP986
                 T00670056 =
2018-01-23 13:53 METAR KRME 231853Z 12009KT 10SM BKN080 BKN100 07/06 A2949 RMK AO2 RAE09 SLP988
                 P0000 T00720061 =
2018-01-23 12:53 METAR KRME 231753Z 11007KT 5SM -RA BR BKN050 OVC060 05/05 A2953 RMK AO2 SLP001
                 P0002 60014 T00500050 10061 20022 58024 =
2018-01-23 11:53 METAR KRME 231653Z 09005KT 9SM -RA OVC055 06/06 A2957 RMK AO2 SLP013 P0002
                 T00610056 =
2018-01-23 10:53 METAR KRME 231553Z 10005KT 10SM -RA BKN070 OVC085 06/05 A2957 RMK AO2 RAE1459B25
                 SLP015 P0000 T00560050 =
2018-01-23 09:53 METAR KRME 231453Z 09012KT 7SM -RA FEW019 BKN060 OVC075 04/04 A2960 RMK AO2
                 SLP027 P0006 60010 T00440039 58016 =
2018-01-23 09:46 METAR KRME 231446Z 09012KT 3SM -RA BR FEW020 OVC060 04/04 A2961 RMK AO2 PRESFR
                 P0006 T00390039 =
2018-01-23 09:43 METAR KRME 231443Z 09011KT 1 3/4SM RA BR FEW017 FEW022 OVC060 04/04 A2962 RMK
                 AO2 PRESFR P0006 T00390039 =
2018-01-23 09:35 METAR KRME 231435Z 12007KT 1 1/4SM RA BR SCT019 BKN025 OVC050 03/03 A2964 RMK
                 AO2 P0005 T00280028 =
2018-01-23 09:23 METAR KRME 231423Z 13006KT 1/2SM RA FG SCT017 BKN021 OVC055 03/02 A2965 RMK AO2
                 P0003 T00280022 RVRNO =
2018-01-23 09:06 METAR KRME 231406Z 13004KT 1 3/4SM RA BR OVC015 02/02 A2965 RMK AO2 P0001
                 T00220022 =
2018-01-23 08:53 METAR KRME 231353Z 00000KT 4SM -RA BR OVC017 03/03 A2966 RMK AO2 RAB14 SLP045
                 P0001 T00330033 =
2018-01-23 07:53 METAR KRME 231253Z 09005KT 7SM OVC017 03/03 A2966 RMK AO2 RAB02E47 SLP045 P0003
                 T00330028 =
2018-01-23 06:53 METAR KRME 231153Z 12010KT 10SM OVC024 04/03 A2965 RMK AO2 LTG DSNT NW SLP043
                 60003 70012 T00390028 10044 20033 58036 =
2018-01-23 06:05 METAR KRME 231105Z AUTO 11009KT 9SM BKN028 03/02 A2969 RMK AO2 T00330022 =
2018-01-23 05:53 METAR KRME 231053Z AUTO 11012KT 9SM SCT028 03/02 A2969 RMK AO2 RAE0956 SLP057
                 P0000 T00330022 =
2018-01-23 04:53 METAR KRME 230953Z AUTO 10012KT 9SM -RA OVC070 04/03 A2972 RMK AO2 RAB15 PRESFR
                 SLP067 P0000 T00390028 =
2018-01-23 03:53 METAR KRME 230853Z AUTO 12006KT 9SM SCT075 OVC090 04/03 A2976 RMK AO2 RAE30
                 SLP079 P0002 60003 T00390028 58027 =
2018-01-23 02:53 METAR KRME 230753Z AUTO 09004KT 8SM -RA OVC075 04/03 A2981 RMK AO2 RAB0658
                 SLP096 P0001 T00390028 =
2018-01-23 01:53 METAR KRME 230653Z AUTO 11009KT 8SM OVC100 04/02 A2982 RMK AO2 SLP101 T00390022
                 =
2018-01-23 00:53 METAR KRME 230553Z AUTO 11008KT 8SM CLR 03/03 A2984 RMK AO2 SLP107 60000
                 T00330028 10039 20022 58036 =
2018-01-22 23:53 METAR KRME 230453Z AUTO 12010KT 8SM FEW011 SCT100 03/02 A2988 RMK AO2 SLP120
                 T00330022 400330017 =
2018-01-22 23:14 METAR KRME 230414Z AUTO 11010KT 8SM SCT011 SCT110 03/02 A2991 RMK AO2 T00280022
                 =
2018-01-22 23:06 METAR KRME 230406Z AUTO 10009KT 8SM BKN011 BKN110 03/02 A2992 RMK AO2 T00330022
                 =
2018-01-22 22:53 METAR KRME 230353Z AUTO 11008KT 9SM SCT011 OVC110 03/02 A2993 RMK AO2 SLP137
                 T00330022 =
2018-01-22 22:15 METAR KRME 230315Z AUTO 11010KT 8SM FEW010 OVC110 03/02 A2994 RMK AO2 T00280022
                 =
2018-01-22 21:53 METAR KRME 230253Z AUTO 12009KT 8SM BKN009 OVC100 03/02 A2995 RMK AO2 SLP143
                 60000 T00330022 56016 =
2018-01-22 21:30 METAR KRME 230230Z AUTO 11007KT 8SM OVC009 03/02 A2994 RMK AO2 T00280022 =
2018-01-22 20:53 METAR KRME 230153Z 12007KT 8SM OVC010 03/02 A2996 RMK AO2 RAB0056E06 SLP148
                 P0000 T00280017 =
2018-01-22 19:53 METAR KRME 230053Z 11009KT 10SM BKN010 OVC070 03/02 A2997 RMK AO2 RAE06 SLP152
                 P0000 T00280022 =
2018-01-22 18:53 METAR KRME 222353Z 11011KT 10SM -RA BKN011 OVC017 02/02 A2999 RMK AO2 RAB45
                 SLP160 P0000 60009 T00220017 10033 20022 58011 =

Support USWX by starting your Amazon purchase here.